Time,TemperatureF,DewpointF,PressureIn,WindDirection,WindDirectionDegrees,WindSpeedMPH,WindSpeedGustMPH,Humidity,HourlyPrecipIn,Conditions,Clouds,dailyrainin,SolarRadiationWatts/m^2,SoftwareType,DateUTC
2013-10-31 00:00:00,68.1,65.0,30.02,ESE,114,3.0,12.0,90,0.00,FEW,SCT,0.00,0.0,WeatherDisplay:10.37,2013-10-31 10:00:00,
2013-10-31 00:10:00,68.2,64.8,30.02,ESE,109,2.0,7.0,89,0.00,FEW,SCT,0.00,0.0,WeatherDisplay:10.37,2013-10-31 10:10:00,
2013-10-31 00:20:00,68.0,64.6,30.02,East,95,3.0,8.0,89,0.00,FEW,SCT,0.00,0.0,WeatherDisplay:10.37,2013-10-31 10:20:00,
2013-10-31 00:30:00,68.2,64.9,30.01,East,95,8.0,13.0,89,0.00,FEW,SCT,0.00,0.0,WeatherDisplay:10.37,2013-10-31 10:30:00,
2013-10-31 00:40:00,68.4,64.7,30.01,ESE,109,1.0,8.0,88,0.00,OVC,SCT,0.00,0.0,WeatherDisplay:10.37,2013-10-31 10:40:00,
2013-10-31 00:50:00,68.3,64.6,30.01,East,83,5.0,12.0,88,0.00,OVC,SCT,0.00,0.0,WeatherDisplay:10.37,2013-10-31 10:50:00,
2013-10-31 01:00:00,68.4,64.7,30.01,East,96,5.0,12.0,88,0.00,OVC,SCT,0.00,0.0,WeatherDisplay:10.37,2013-10-31 11:00:00,
2013-10-31 01:10:00,68.4,64.7,30.01,ESE,106,3.0,9.0,88,0.00,CLR,SCT,0.00,0.0,WeatherDisplay:10.37,2013-10-31 11:10:00,
2013-10-31 01:20:00,68.2,64.5,30.00,East,95,2.0,5.0,88,0.00,CLR,SCT,0.00,0.0,WeatherDisplay:10.37,2013-10-31 11:20:00,
2013-10-31 01:30:00,68.1,64.4,30.00,ESE,115,5.0,8.0,88,0.00,CLR,SCT,0.00,0.0,WeatherDisplay:10.37,2013-10-31 11:30:00,
2013-10-31 01:40:00,68.3,64.3,30.00,ESE,109,2.0,7.0,87,0.00,CLR,SCT,0.00,0.0,WeatherDisplay:10.37,2013-10-31 11:40:00,
2013-10-31 01:50:00,68.3,64.3,29.99,ESE,111,3.0,6.0,87,0.00,CLR,SCT,0.00,0.0,WeatherDisplay:10.37,2013-10-31 11:50:00,
2013-10-31 02:00:00,68.2,64.2,29.99,ESE,114,0.0,5.0,87,0.00,CLR,SCT,0.00,0.0,WeatherDisplay:10.37,2013-10-31 12:00:00,
2013-10-31 02:10:00,68.1,64.1,29.98,ESE,102,3.0,14.0,87,0.00,FEW,SCT,0.00,0.0,WeatherDisplay:10.37,2013-10-31 12:10:00,
2013-10-31 02:20:00,68.0,63.7,29.98,ESE,106,3.0,5.0,86,0.00,FEW,SCT,0.00,0.0,WeatherDisplay:10.37,2013-10-31 12:20:00,
2013-10-31 02:30:00,67.9,62.5,29.98,East,101,3.0,5.0,83,0.00,FEW,SCT,0.00,0.0,WeatherDisplay:10.37,2013-10-31 12:30:00,
2013-10-31 02:40:00,68.0,62.6,29.97,ESE,102,3.0,7.0,83,0.00,FEW,SCT,0.00,0.0,WeatherDisplay:10.37,2013-10-31 12:40:00,
2013-10-31 02:50:00,67.9,62.2,29.98,ESE,111,3.0,7.0,82,0.00,FEW,SCT,0.00,0.0,WeatherDisplay:10.37,2013-10-31 12:50:00,
2013-10-31 03:00:00,67.6,62.6,29.97,ESE,104,2.0,4.0,84,0.00,FEW,SCT,0.00,0.0,WeatherDisplay:10.37,2013-10-31 13:00:00,
2013-10-31 03:10:00,67.6,62.6,29.97,East,87,5.0,9.0,84,0.00,FEW,SCT,0.00,0.0,WeatherDisplay:10.37,2013-10-31 13:10:00,
2013-10-31 03:20:00,68.1,62.4,29.98,ESE,113,5.0,10.0,82,0.00,CLR,SCT,0.00,0.0,WeatherDisplay:10.37,2013-10-31 13:20:00,
2013-10-31 03:30:00,68.6,62.2,29.97,ESE,110,2.0,7.0,80,0.00,CLR,SCT,0.00,0.0,WeatherDisplay:10.37,2013-10-31 13:30:00,
2013-10-31 03:40:00,68.8,62.4,29.96,East,100,6.0,9.0,80,0.00,CLR,SCT,0.00,0.0,WeatherDisplay:10.37,2013-10-31 13:40:00,
2013-10-31 03:50:00,68.8,62.0,29.97,ESE,105,2.0,8.0,79,0.00,CLR,SCT,0.00,0.0,WeatherDisplay:10.37,2013-10-31 13:50:00,
2013-10-31 04:00:00,68.6,62.2,29.96,East,101,3.0,8.0,80,0.00,CLR,SCT,0.00,0.0,WeatherDisplay:10.37,2013-10-31 14:00:00,
2013-10-31 04:10:00,68.5,61.7,29.96,East,97,6.0,12.0,79,0.00,CLR,SCT,0.00,0.0,WeatherDisplay:10.37,2013-10-31 14:10:00,
2013-10-31 04:20:00,68.5,62.1,29.96,ESE,105,2.0,8.0,80,0.00,CLR,SCT,0.00,0.0,WeatherDisplay:10.37,2013-10-31 14:20:00,
2013-10-31 04:30:00,67.9,62.2,29.96,SSE,148,0.0,3.0,82,0.00,CLR,SCT,0.00,0.0,WeatherDisplay:10.37,2013-10-31 14:30:00,
2013-10-31 04:40:00,67.0,61.6,29.96,ESE,119,1.0,5.0,83,0.00,CLR,SCT,0.00,0.0,WeatherDisplay:10.37,2013-10-31 14:40:00,
2013-10-31 04:50:00,66.3,61.6,29.96,ESE,123,0.0,5.0,85,0.00,CLR,SCT,0.00,0.0,WeatherDisplay:10.37,2013-10-31 14:50:00,
2013-10-31 05:00:00,66.0,61.4,29.95,East,80,3.0,5.0,85,0.00,CLR,SCT,0.00,0.0,WeatherDisplay:10.37,2013-10-31 15:00:00,
2013-10-31 05:10:00,66.6,61.2,29.96,ENE,76,5.0,9.0,83,0.00,CLR,SCT,0.00,0.0,WeatherDisplay:10.37,2013-10-31 15:10:00,
2013-10-31 05:20:00,67.3,61.6,29.96,ESE,110,1.0,7.0,82,0.00,CLR,SCT,0.00,0.0,WeatherDisplay:10.37,2013-10-31 15:20:00,
2013-10-31 05:30:00,67.0,62.0,29.97,ESE,111,0.0,4.0,84,0.00,CLR,SCT,0.00,0.0,WeatherDisplay:10.37,2013-10-31 15:30:00,
2013-10-31 05:40:00,66.4,61.8,29.97,ESE,111,0.0,3.0,85,0.00,CLR,SCT,0.00,0.0,WeatherDisplay:10.37,2013-10-31 15:40:00,
2013-10-31 05:50:00,65.7,61.4,29.97,ESE,111,0.0,3.0,86,0.00,CLR,SCT,0.00,0.0,WeatherDisplay:10.37,2013-10-31 15:50:00,
2013-10-31 06:00:00,65.1,61.1,29.97,ESE,108,3.0,6.0,87,0.00,CLR,SCT,0.00,0.0,WeatherDisplay:10.37,2013-10-31 16:00:00,
2013-10-31 06:10:00,65.2,60.9,29.97,ESE,107,3.0,6.0,86,0.00,CLR,SCT,0.00,0.0,WeatherDisplay:10.37,2013-10-31 16:10:00,
2013-10-31 06:20:00,65.2,60.9,29.98,ESE,106,1.0,4.0,86,0.00,CLR,SCT,0.00,0.0,WeatherDisplay:10.37,2013-10-31 16:20:00,
2013-10-31 06:30:00,65.0,61.0,29.98,East,100,1.0,4.0,87,0.00,CLR,SCT,0.00,0.0,WeatherDisplay:10.37,2013-10-31 16:30:00,
2013-10-31 06:40:00,65.4,61.1,29.98,East,86,1.0,8.0,86,0.00,CLR,SCT,0.00,0.3,WeatherDisplay:10.37,2013-10-31 16:40:00,
2013-10-31 06:50:00,65.3,61.0,29.99,SE,125,1.0,6.0,86,0.00,CLR,SCT,0.00,0.9,WeatherDisplay:10.37,2013-10-31 16:50:00,
2013-10-31 07:00:00,65.6,61.6,29.99,SE,124,0.0,5.0,87,0.00,CLR,SCT,0.00,1.9,WeatherDisplay:10.37,2013-10-31 17:00:00,
2013-10-31 07:10:00,65.8,62.1,29.99,ESE,110,0.0,3.0,88,0.00,CLR,SCT,0.00,4.0,WeatherDisplay:10.37,2013-10-31 17:10:00,
2013-10-31 07:20:00,65.7,62.0,30.00,ESE,110,1.0,4.0,88,0.00,CLR,SCT,0.00,6.9,WeatherDisplay:10.37,2013-10-31 17:20:00,
2013-10-31 07:30:00,65.9,62.3,29.99,ESE,110,1.0,4.0,88,0.00,CLR,SCT,0.00,10.4,WeatherDisplay:10.37,2013-10-31 17:30:00,
2013-10-31 07:40:00,66.6,62.7,29.99,ESE,103,2.0,5.0,87,0.00,CLR,SCT,0.00,37.1,WeatherDisplay:10.37,2013-10-31 17:40:00,
2013-10-31 07:50:00,69.7,63.3,29.99,East,80,6.0,11.0,80,0.00,CLR,SCT,0.00,43.2,WeatherDisplay:10.37,2013-10-31 17:50:00,
2013-10-31 08:00:00,71.6,64.0,30.00,East,89,3.0,12.0,77,0.00,CLR,SCT,0.00,108.4,WeatherDisplay:10.37,2013-10-31 18:00:00,
2013-10-31 08:10:00,73.6,65.9,30.00,SE,126,0.0,5.0,77,0.00,CLR,SCT,0.00,122.9,WeatherDisplay:10.37,2013-10-31 18:10:00,
2013-10-31 08:20:00,74.6,66.1,30.01,SE,135,1.0,3.0,75,0.00,CLR,SCT,0.00,147.8,WeatherDisplay:10.37,2013-10-31 18:20:00,
2013-10-31 08:30:00,75.4,66.2,30.01,WNW,289,2.0,5.0,73,0.00,CLR,SCT,0.00,159.5,WeatherDisplay:10.37,2013-10-31 18:30:00,
2013-10-31 08:40:00,76.1,66.0,30.02,WSW,255,0.0,4.0,71,0.00,CLR,SCT,0.00,183.5,WeatherDisplay:10.37,2013-10-31 18:40:00,
2013-10-31 08:50:00,76.4,66.3,30.03,SW,215,3.0,7.0,71,0.00,CLR,SCT,0.00,216.8,WeatherDisplay:10.37,2013-10-31 18:50:00,
2013-10-31 09:00:00,77.1,65.3,30.03,SW,223,3.0,7.0,67,0.00,CLR,SCT,0.00,215.2,WeatherDisplay:10.37,2013-10-31 19:00:00,
2013-10-31 09:10:00,77.3,66.0,30.03,WSW,238,2.0,5.0,68,0.00,CLR,SCT,0.00,269.7,WeatherDisplay:10.37,2013-10-31 19:10:00,
2013-10-31 09:20:00,78.3,66.4,30.03,SSW,205,5.0,5.0,67,0.00,CLR,SCT,0.00,294.9,WeatherDisplay:10.37,2013-10-31 19:20:00,
2013-10-31 09:30:00,78.7,66.4,30.03,WSW,250,0.0,5.0,66,0.00,CLR,SCT,0.00,317.8,WeatherDisplay:10.37,2013-10-31 19:30:00,
2013-10-31 09:40:00,79.8,66.5,30.03,WSW,252,3.0,5.0,64,0.00,CLR,SCT,0.00,100.1,WeatherDisplay:10.37,2013-10-31 19:40:00,
2013-10-31 09:50:00,79.6,66.8,30.02,NE,48,6.0,9.0,65,0.00,CLR,SCT,0.00,368.0,WeatherDisplay:10.37,2013-10-31 19:50:00,
2013-10-31 10:00:00,80.2,66.9,30.02,ENE,72,6.0,12.0,64,0.00,CLR,SCT,0.00,392.5,WeatherDisplay:10.37,2013-10-31 20:00:00,
2013-10-31 10:10:00,80.5,68.1,30.02,ENE,74,6.0,12.0,66,0.00,CLR,SCT,0.00,416.6,WeatherDisplay:10.37,2013-10-31 20:10:00,
2013-10-31 10:20:00,80.5,68.1,30.02,ENE,74,7.0,14.0,66,0.00,CLR,SCT,0.00,451.6,WeatherDisplay:10.37,2013-10-31 20:20:00,
2013-10-31 10:30:00,81.0,69.0,30.01,East,84,6.0,15.0,67,0.00,CLR,SCT,0.00,568.2,WeatherDisplay:10.37,2013-10-31 20:30:00,
2013-10-31 10:40:00,80.5,68.1,30.01,East,99,6.0,14.0,66,0.00,FEW,SCT,0.00,881.0,WeatherDisplay:10.37,2013-10-31 20:40:00,
2013-10-31 10:50:00,81.1,67.3,30.00,East,90,7.0,13.0,63,0.00,FEW,SCT,0.00,1209.9,WeatherDisplay:10.37,2013-10-31 20:50:00,
2013-10-31 11:00:00,81.4,67.1,30.00,East,92,6.0,17.0,62,0.00,FEW,SCT,0.00,338.4,WeatherDisplay:10.37,2013-10-31 21:00:00,
2013-10-31 11:10:00,80.2,67.3,30.00,East,97,8.0,12.0,65,0.00,FEW,SCT,0.00,218.5,WeatherDisplay:10.37,2013-10-31 21:10:00,
2013-10-31 11:20:00,78.7,66.3,30.00,ESE,110,6.0,12.0,66,0.00,FEW,SCT,0.00,184.1,WeatherDisplay:10.37,2013-10-31 21:20:00,
2013-10-31 11:30:00,77.8,66.8,30.00,ESE,103,7.0,12.0,69,0.00,FEW,SCT,0.00,202.5,WeatherDisplay:10.37,2013-10-31 21:30:00,
2013-10-31 11:40:00,78.9,67.0,29.99,East,92,6.0,13.0,67,0.00,FEW,SCT,0.00,1548.2,WeatherDisplay:10.37,2013-10-31 21:40:00,
2013-10-31 11:50:00,81.0,67.6,29.99,East,91,1.0,12.0,64,0.00,FEW,SCT,0.00,1418.6,WeatherDisplay:10.37,2013-10-31 21:50:00,
2013-10-31 12:00:00,80.5,66.3,29.98,East,83,5.0,12.0,62,0.00,FEW,SCT,0.00,202.2,WeatherDisplay:10.37,2013-10-31 22:00:00,
2013-10-31 12:10:00,79.0,65.7,29.98,East,94,6.0,12.0,64,0.00,FEW,SCT,0.00,127.7,WeatherDisplay:10.37,2013-10-31 22:10:00,
2013-10-31 12:20:00,78.1,65.8,29.98,East,89,3.0,10.0,66,0.00,FEW,SCT,0.00,152.5,WeatherDisplay:10.37,2013-10-31 22:20:00,
2013-10-31 12:30:00,77.6,66.2,29.98,East,85,7.0,12.0,68,0.00,FEW,SCT,0.00,168.0,WeatherDisplay:10.37,2013-10-31 22:30:00,
2013-10-31 12:40:00,77.6,67.4,29.97,East,86,6.0,10.0,71,0.00,FEW,SCT,0.00,1636.8,WeatherDisplay:10.37,2013-10-31 22:40:00,
2013-10-31 12:50:00,79.1,68.1,29.96,East,87,8.0,13.0,69,0.00,FEW,SCT,0.00,139.1,WeatherDisplay:10.37,2013-10-31 22:50:00,
2013-10-31 13:00:00,77.8,67.7,29.96,ENE,77,8.0,12.0,71,0.00,FEW,SCT,0.00,87.5,WeatherDisplay:10.37,2013-10-31 23:00:00,
2013-10-31 13:10:00,76.6,67.3,29.95,East,82,6.0,12.0,73,0.00,FEW,SCT,0.00,71.9,WeatherDisplay:10.37,2013-10-31 23:10:00,
2013-10-31 13:20:00,75.8,67.0,29.95,East,89,7.0,12.0,74,0.00,FEW,SCT,0.00,64.8,WeatherDisplay:10.37,2013-10-31 23:20:00,
2013-10-31 13:30:00,75.5,66.6,29.95,East,86,7.0,12.0,74,0.00,FEW,SCT,0.00,87.3,WeatherDisplay:10.37,2013-10-31 23:30:00,
2013-10-31 13:40:00,75.2,66.7,29.95,East,85,7.0,12.0,75,0.00,FEW,SCT,0.00,76.0,WeatherDisplay:10.37,2013-10-31 23:40:00,
2013-10-31 13:50:00,75.1,66.2,29.94,East,95,7.0,13.0,74,0.00,FEW,SCT,0.00,55.2,WeatherDisplay:10.37,2013-10-31 23:50:00,
2013-10-31 14:00:00,74.9,66.4,29.94,East,89,7.0,14.0,75,0.00,FEW,SCT,0.00,162.8,WeatherDisplay:10.37,2013-11-01 00:00:00,
2013-10-31 14:10:00,75.1,67.0,29.94,East,81,5.0,13.0,76,0.00,SCT,SCT,0.00,151.9,WeatherDisplay:10.37,2013-11-01 00:10:00,
2013-10-31 14:20:00,75.0,66.5,29.94,East,82,6.0,12.0,75,0.00,SCT,SCT,0.00,402.5,WeatherDisplay:10.37,2013-11-01 00:20:00,
2013-10-31 14:30:00,75.9,66.6,29.93,ENE,78,7.0,15.0,73,0.00,SCT,SCT,0.00,318.0,WeatherDisplay:10.37,2013-11-01 00:30:00,
2013-10-31 14:40:00,77.4,67.6,29.93,East,83,7.0,16.0,72,0.00,SCT,SCT,0.00,466.2,WeatherDisplay:10.37,2013-11-01 00:40:00,
2013-10-31 14:50:00,76.6,67.3,29.93,ENE,77,8.0,16.0,73,0.00,SCT,SCT,0.00,155.0,WeatherDisplay:10.37,2013-11-01 00:50:00,
2013-10-31 15:00:00,76.5,67.5,29.93,ENE,77,9.0,20.0,74,0.00,SCT,SCT,0.00,254.6,WeatherDisplay:10.37,2013-11-01 01:00:00,
2013-10-31 15:10:00,76.6,67.3,29.94,East,81,7.0,14.0,73,0.00,SCT,SCT,0.00,310.6,WeatherDisplay:10.37,2013-11-01 01:10:00,
2013-10-31 15:20:00,76.2,66.5,29.94,East,86,8.0,14.0,72,0.00,SCT,SCT,0.00,79.0,WeatherDisplay:10.37,2013-11-01 01:20:00,
2013-10-31 15:30:00,75.1,66.2,29.94,East,90,6.0,13.0,74,0.00,SCT,SCT,0.00,70.4,WeatherDisplay:10.37,2013-11-01 01:30:00,
2013-10-31 15:40:00,74.7,66.7,29.95,ENE,77,9.0,13.0,76,0.00,SCT,SCT,0.00,221.6,WeatherDisplay:10.37,2013-11-01 01:40:00,
2013-10-31 15:50:00,76.4,67.5,29.94,East,82,12.0,17.0,74,0.00,SCT,SCT,0.00,182.8,WeatherDisplay:10.37,2013-11-01 01:50:00,
2013-10-31 16:00:00,77.0,67.3,29.94,East,79,10.0,17.0,72,0.00,SCT,SCT,0.00,158.9,WeatherDisplay:10.37,2013-11-01 02:00:00,
2013-10-31 16:11:00,76.7,67.4,29.94,ENE,74,6.0,15.0,73,0.00,SCT,SCT,0.00,134.7,WeatherDisplay:10.37,2013-11-01 02:11:00,
2013-10-31 16:20:00,76.7,67.4,29.94,ENE,70,8.0,16.0,73,0.00,SCT,SCT,0.00,113.2,WeatherDisplay:10.37,2013-11-01 02:20:00,
2013-10-31 16:30:00,76.2,66.9,29.94,ENE,72,8.0,13.0,73,0.00,SCT,SCT,0.00,92.3,WeatherDisplay:10.37,2013-11-01 02:30:00,
2013-10-31 16:40:00,75.9,65.8,29.94,East,81,6.0,12.0,71,0.00,SCT,SCT,0.00,74.0,WeatherDisplay:10.37,2013-11-01 02:40:00,
2013-10-31 16:50:00,75.5,67.1,29.95,ENE,73,7.0,12.0,75,0.00,SCT,SCT,0.00,56.5,WeatherDisplay:10.37,2013-11-01 02:50:00,
2013-10-31 17:00:00,74.8,66.3,29.95,ENE,67,5.0,13.0,75,0.00,SCT,SCT,0.00,40.6,WeatherDisplay:10.37,2013-11-01 03:00:00,
2013-10-31 17:10:00,74.1,65.6,29.95,ENE,73,5.0,16.0,75,0.00,SCT,SCT,0.00,25.8,WeatherDisplay:10.37,2013-11-01 03:10:00,
2013-10-31 17:20:00,73.4,65.8,29.96,ENE,77,8.0,15.0,77,0.00,SCT,SCT,0.00,3.7,WeatherDisplay:10.37,2013-11-01 03:20:00,
2013-10-31 17:30:00,72.7,65.4,29.96,ENE,71,6.0,12.0,78,0.00,SCT,SCT,0.00,2.9,WeatherDisplay:10.37,2013-11-01 03:30:00,
2013-10-31 17:40:00,72.2,65.7,29.97,ENE,68,8.0,12.0,80,0.00,FEW,SCT,0.00,1.4,WeatherDisplay:10.37,2013-11-01 03:40:00,
2013-10-31 17:50:00,71.6,64.7,29.96,ENE,74,5.0,10.0,79,0.00,FEW,SCT,0.00,0.0,WeatherDisplay:10.37,2013-11-01 03:50:00,
2013-10-31 18:00:00,71.3,64.4,29.97,East,79,5.0,9.0,79,0.00,FEW,SCT,0.00,0.0,WeatherDisplay:10.37,2013-11-01 04:00:00,
2013-10-31 18:10:00,71.0,64.5,29.97,ENE,74,5.0,14.0,80,0.00,FEW,SCT,0.00,0.0,WeatherDisplay:10.37,2013-11-01 04:10:00,
2013-10-31 18:20:00,70.6,63.4,29.96,ENE,72,7.0,13.0,78,0.00,FEW,SCT,0.00,0.0,WeatherDisplay:10.37,2013-11-01 04:20:00,
2013-10-31 18:30:00,70.4,63.9,29.97,ENE,73,6.0,13.0,80,0.00,FEW,SCT,0.00,0.0,WeatherDisplay:10.37,2013-11-01 04:30:00,
2013-10-31 18:40:00,70.1,63.2,29.97,ENE,75,7.0,13.0,79,0.00,FEW,SCT,0.00,0.0,WeatherDisplay:10.37,2013-11-01 04:40:00,
2013-10-31 18:50:00,70.0,62.5,29.97,East,79,12.0,16.0,77,0.00,FEW,SCT,0.00,0.0,WeatherDisplay:10.37,2013-11-01 04:50:00,
2013-10-31 19:00:00,70.2,62.7,29.97,ENE,68,8.0,16.0,77,0.00,FEW,SCT,0.00,0.0,WeatherDisplay:10.37,2013-11-01 05:00:00,
2013-10-31 19:10:00,70.0,62.8,29.98,ENE,72,7.0,13.0,78,0.00,FEW,SCT,0.00,0.0,WeatherDisplay:10.37,2013-11-01 05:10:00,
2013-10-31 19:20:00,69.7,62.6,29.99,ENE,77,8.0,14.0,78,0.00,FEW,SCT,0.00,0.0,WeatherDisplay:10.37,2013-11-01 05:20:00,
2013-10-31 19:30:00,69.9,62.7,29.99,East,81,6.0,14.0,78,0.00,FEW,SCT,0.00,0.0,WeatherDisplay:10.37,2013-11-01 05:30:00,
2013-10-31 19:40:00,69.8,62.6,30.00,ENE,74,8.0,16.0,78,0.00,FEW,SCT,0.00,0.0,WeatherDisplay:10.37,2013-11-01 05:40:00,
2013-10-31 19:50:00,70.1,62.6,30.00,East,82,7.0,16.0,77,0.00,FEW,SCT,0.00,0.0,WeatherDisplay:10.37,2013-11-01 05:50:00,
2013-10-31 20:00:00,70.1,62.6,30.00,East,87,5.0,12.0,77,0.00,FEW,SCT,0.00,0.0,WeatherDisplay:10.37,2013-11-01 06:00:00,
2013-10-31 20:10:00,70.1,62.9,30.01,East,80,7.0,13.0,78,0.00,FEW,SCT,0.00,0.0,WeatherDisplay:10.37,2013-11-01 06:10:00,
2013-10-31 20:20:00,70.1,62.6,30.01,ENE,78,5.0,13.0,77,0.00,FEW,SCT,0.00,0.0,WeatherDisplay:10.37,2013-11-01 06:20:00,
2013-10-31 20:30:00,70.2,62.3,30.01,East,80,7.0,14.0,76,0.00,FEW,SCT,0.00,0.0,WeatherDisplay:10.37,2013-11-01 06:30:00,
2013-10-31 20:40:00,70.3,62.4,30.01,ENE,72,8.0,14.0,76,0.00,CLR,SCT,0.00,0.0,WeatherDisplay:10.37,2013-11-01 06:40:00,
2013-10-31 20:50:00,70.3,62.3,30.02,ENE,76,6.0,12.0,76,0.00,CLR,SCT,0.00,0.0,WeatherDisplay:10.37,2013-11-01 06:50:00,
2013-10-31 21:00:00,70.0,62.8,30.02,ENE,64,7.0,13.0,78,0.00,CLR,SCT,0.00,0.0,WeatherDisplay:10.37,2013-11-01 07:00:00,
2013-10-31 21:10:00,69.5,63.4,30.02,ENE,67,7.0,13.0,81,0.00,CLR,SCT,0.00,0.0,WeatherDisplay:10.37,2013-11-01 07:10:00,
2013-10-31 21:20:00,69.2,63.5,30.02,ENE,67,6.0,13.0,82,0.00,CLR,SCT,0.00,0.0,WeatherDisplay:10.37,2013-11-01 07:20:00,
2013-10-31 21:30:00,69.0,63.3,30.02,ENE,74,7.0,15.0,82,0.00,CLR,SCT,0.00,0.0,WeatherDisplay:10.37,2013-11-01 07:30:00,
2013-10-31 21:40:00,69.4,63.3,30.02,ENE,74,7.0,14.0,81,0.00,CLR,SCT,0.00,0.0,WeatherDisplay:10.37,2013-11-01 07:40:00,
2013-10-31 21:50:00,69.7,64.0,30.02,ENE,67,7.0,16.0,82,0.00,CLR,SCT,0.00,0.0,WeatherDisplay:10.37,2013-11-01 07:50:00,
2013-10-31 22:00:00,69.0,64.3,30.02,East,80,6.0,16.0,85,0.01,RA,SCT,0.01,0.0,WeatherDisplay:10.37,2013-11-01 08:00:00,
2013-10-31 22:10:00,68.4,64.0,30.02,ENE,72,6.0,12.0,86,0.00,CLR,SCT,0.01,0.0,WeatherDisplay:10.37,2013-11-01 08:10:00,
2013-10-31 22:20:00,68.3,63.9,30.02,ENE,70,7.0,13.0,86,0.00,CLR,SCT,0.01,0.0,WeatherDisplay:10.37,2013-11-01 08:20:00,
2013-10-31 22:30:00,68.4,63.7,30.02,ENE,75,6.0,12.0,85,0.00,CLR,SCT,0.01,0.0,WeatherDisplay:10.37,2013-11-01 08:30:00,
2013-10-31 22:40:00,68.3,63.9,30.01,ENE,72,6.0,12.0,86,0.00,BKN,SCT,0.01,0.0,WeatherDisplay:10.37,2013-11-01 08:40:00,
2013-10-31 22:50:00,68.1,63.8,30.01,ENE,67,6.0,12.0,86,0.00,BKN,SCT,0.01,0.0,WeatherDisplay:10.37,2013-11-01 08:50:00,
2013-10-31 23:00:00,68.1,63.8,30.01,ENE,73,9.0,16.0,86,0.00,BKN,SCT,0.01,0.0,WeatherDisplay:10.37,2013-11-01 09:00:00,
2013-10-31 23:10:00,67.8,64.1,30.01,ENE,67,8.0,14.0,88,0.00,BKN,SCT,0.01,0.0,WeatherDisplay:10.37,2013-11-01 09:10:00,
2013-10-31 23:20:00,67.5,64.1,30.01,ENE,71,9.0,15.0,89,0.00,BKN,SCT,0.01,0.0,WeatherDisplay:10.37,2013-11-01 09:20:00,
2013-10-31 23:30:00,67.4,63.8,30.01,East,83,7.0,13.0,88,0.00,BKN,SCT,0.01,0.0,WeatherDisplay:10.37,2013-11-01 09:30:00,
2013-10-31 23:40:00,67.8,63.1,30.00,East,85,10.0,15.0,85,0.00,FEW,SCT,0.01,0.0,WeatherDisplay:10.37,2013-11-01 09:40:00,
2013-10-31 23:50:00,68.0,63.0,30.00,East,81,7.0,17.0,84,0.00,FEW,SCT,0.01,0.0,WeatherDisplay:10.37,2013-11-01 09:50:00,